Terminal Aerodrome Forecast
Issued by NWS

Home | Current Version | Previous Version | Text Only | Print | Product List | Glossary On
Versions: 1 2 3 4 5 6 7 8 9 10 11 12 13 14 15
005
FTUS44 KCRP 232334
TAFALI
TAF
KALI 232334Z 2400/2424 14015G25KT P6SM SCT250
     FM240300 15008KT P6SM SCT025
     FM240800 16005KT P6SM SCT009 BKN015
      TEMPO 2410/2412 5SM BR
     FM241500 15008KT P6SM SCT025
      TEMPO 2415/2418 BKN025
     FM241800 11010KT P6SM VCTS BKN030CB
     FM242200 10012G18KT P6SM SCT040 BKN100=

USA.gov is the U.S. government's official web portal to all federal, state and local government web resources and services.